createdAt,value
2022-11-14T00:03:49.981Z,3
2022-11-14T00:10:00.491Z,3
2022-11-14T00:16:11.174Z,3
2022-11-14T00:22:38.393Z,3
2022-11-14T00:30:03.025Z,3
2022-11-14T00:37:27.818Z,3
2022-11-14T00:44:52.731Z,3
2022-11-14T00:50:05.513Z,4
2022-11-14T00:56:16.210Z,4
2022-11-14T01:02:27.011Z,4
2022-11-14T01:08:37.526Z,4
2022-11-14T01:14:48.194Z,4
2022-11-14T01:20:58.997Z,3
2022-11-14T01:27:09.525Z,3
2022-11-14T01:33:20.216Z,4
2022-11-14T01:39:30.955Z,4
2022-11-14T01:45:41.545Z,5
2022-11-14T01:51:52.198Z,5
2022-11-14T01:59:08.837Z,5
2022-11-14T02:05:19.477Z,5
2022-11-14T02:10:32.404Z,5
2022-11-14T02:17:57.287Z,4
2022-11-14T02:24:07.882Z,4
2022-11-14T02:30:18.500Z,3
2022-11-14T02:36:29.326Z,3
2022-11-14T02:42:39.838Z,3
2022-11-14T02:48:50.507Z,3
2022-11-14T02:55:01.291Z,3
2022-11-14T03:02:17.773Z,3
2022-11-14T03:07:22.700Z,3
2022-11-14T03:13:33.273Z,3
2022-11-14T03:20:57.981Z,3
2022-11-14T03:28:22.765Z,3
2022-11-14T03:33:27.631Z,5
2022-11-14T03:39:38.146Z,5
2022-11-14T03:45:48.805Z,4
2022-11-14T03:51:59.617Z,4
2022-11-14T03:58:10.200Z,4
2022-11-14T04:04:20.863Z,4
2022-11-14T04:10:23.409Z,3
2022-11-14T04:16:33.951Z,3
2022-11-14T04:22:44.630Z,3
2022-11-14T04:28:55.301Z,4
2022-11-14T04:35:05.981Z,4
2022-11-14T04:40:18.883Z,4
2022-11-14T04:46:29.800Z,4
2022-11-14T04:52:40.207Z,3
2022-11-14T04:57:44.939Z,3
2022-11-14T05:03:55.613Z,3
2022-11-14T05:10:06.283Z,4
2022-11-14T05:16:08.751Z,4
2022-11-14T05:22:19.422Z,4
2022-11-14T05:28:30.453Z,4
2022-11-14T05:34:40.739Z,6
2022-11-14T05:40:51.404Z,5
2022-11-14T05:47:02.033Z,5
2022-11-14T05:53:12.732Z,6
2022-11-14T05:59:23.406Z,6
2022-11-14T06:05:34.077Z,5
2022-11-14T06:11:36.546Z,6
2022-11-14T06:17:47.225Z,6
2022-11-14T06:23:57.862Z,6
2022-11-14T06:30:08.509Z,7
2022-11-14T06:36:19.226Z,6
2022-11-14T06:42:29.841Z,8
2022-11-14T06:48:40.498Z,6
2022-11-14T06:54:51.194Z,8
2022-11-14T07:01:01.892Z,8
2022-11-14T07:07:29.046Z,9
2022-11-14T07:13:31.422Z,11
2022-11-14T07:19:42.042Z,11
2022-11-14T07:25:52.712Z,11
2022-11-14T07:32:03.403Z,11
2022-11-14T07:38:14.032Z,10
2022-11-14T07:44:24.707Z,11
2022-11-14T07:50:35.385Z,11
2022-11-14T07:56:46.035Z,12
2022-11-14T08:02:56.688Z,13
2022-11-14T08:09:07.362Z,13
2022-11-14T08:15:09.946Z,14
2022-11-14T08:21:20.481Z,13
2022-11-14T08:27:31.163Z,14
2022-11-14T08:34:55.962Z,15
2022-11-14T08:42:20.729Z,14
2022-11-14T08:48:31.835Z,15
2022-11-14T08:54:42.152Z,13
2022-11-14T09:00:52.771Z,14
2022-11-14T09:05:57.487Z,14
2022-11-14T09:14:28.211Z,14
2022-11-14T09:20:40.491Z,15
2022-11-14T09:26:54.997Z,14
2022-11-14T09:33:00.202Z,15
2022-11-14T09:38:13.153Z,13
2022-11-14T09:44:23.816Z,12
2022-11-14T09:50:34.478Z,13
2022-11-14T09:56:45.151Z,13
2022-11-14T10:02:55.897Z,15
2022-11-14T10:09:06.482Z,14
2022-11-14T10:15:08.945Z,16
2022-11-14T10:21:19.634Z,14
2022-11-14T10:27:30.249Z,14
2022-11-14T10:33:40.933Z,14
2022-11-14T10:39:51.608Z,14
2022-11-14T10:46:02.268Z,14
2022-11-14T10:52:12.920Z,14
2022-11-14T10:58:23.596Z,14
2022-11-14T11:04:34.256Z,15
2022-11-14T11:11:59.053Z,15
2022-11-14T11:18:09.761Z,15
2022-11-14T11:24:20.377Z,15
2022-11-14T11:30:22.862Z,14
2022-11-14T11:36:33.554Z,14
2022-11-14T11:43:31.839Z,14
2022-11-14T11:48:54.867Z,14
2022-11-14T11:55:05.549Z,15
2022-11-14T12:01:16.177Z,14
2022-11-14T12:07:43.217Z,13
2022-11-14T12:13:53.898Z,15
2022-11-14T12:20:04.563Z,15
2022-11-14T12:27:21.190Z,14
2022-11-14T12:33:32.197Z,15
2022-11-14T12:39:42.518Z,16
2022-11-14T12:45:53.184Z,15
2022-11-14T12:52:03.867Z,16
2022-11-14T12:58:14.506Z,15
2022-11-14T13:04:25.155Z,16
2022-11-14T13:10:35.942Z,15
2022-11-14T13:15:43.483Z,15
2022-11-14T13:21:51.216Z,15
2022-11-14T13:28:07.226Z,15
2022-11-14T13:34:04.351Z,15
2022-11-14T13:40:15.037Z,16
2022-11-14T13:46:25.717Z,13
2022-11-14T13:52:36.369Z,14
2022-11-14T13:58:47.004Z,15
2022-11-14T14:04:57.720Z,13
2022-11-14T14:11:08.340Z,14
2022-11-14T14:17:19.004Z,13
2022-11-14T14:23:29.690Z,12
2022-11-14T14:29:32.165Z,13
2022-11-14T14:35:42.809Z,13
2022-11-14T14:40:55.794Z,13
2022-11-14T14:47:06.394Z,13
2022-11-14T14:53:17.048Z,12
2022-11-14T14:59:27.758Z,13
2022-11-14T15:05:38.386Z,13
2022-11-14T15:13:11.369Z,12
2022-11-14T15:20:36.210Z,12
2022-11-14T15:26:46.848Z,12
2022-11-14T15:32:57.505Z,12
2022-11-14T15:38:21.861Z,12
2022-11-14T15:44:04.713Z,13
2022-11-14T15:50:15.363Z,13
2022-11-14T15:57:40.196Z,12
2022-11-14T16:03:50.950Z,14
2022-11-14T16:10:01.641Z,13
2022-11-14T16:16:12.246Z,14
2022-11-14T16:22:22.856Z,14
2022-11-14T16:28:33.488Z,13
2022-11-14T16:34:44.201Z,13
2022-11-14T16:40:46.657Z,15
2022-11-14T16:46:57.308Z,15
2022-11-14T16:53:08.016Z,15
2022-11-14T16:59:18.648Z,16
2022-11-14T17:05:29.280Z,21
2022-11-14T17:10:42.243Z,16
2022-11-14T17:16:52.908Z,17
2022-11-14T17:23:03.553Z,16
2022-11-14T17:29:14.256Z,14
2022-11-14T17:34:18.925Z,14
2022-11-14T17:40:21.406Z,12
2022-11-14T17:46:32.104Z,12
2022-11-14T17:52:42.751Z,12
2022-11-14T17:58:53.439Z,11
2022-11-14T18:06:18.270Z,11
2022-11-14T18:12:28.895Z,10
2022-11-14T18:18:39.546Z,10
2022-11-14T18:24:50.232Z,10
2022-11-14T18:31:00.868Z,10
2022-11-14T18:37:11.526Z,10
2022-11-14T18:43:14.035Z,9
2022-11-14T18:49:24.687Z,9
2022-11-14T18:55:35.358Z,10
2022-11-14T19:01:46.193Z,10
2022-11-14T19:07:56.658Z,11
2022-11-14T19:14:07.326Z,10
2022-11-14T19:20:18.045Z,11
2022-11-14T19:26:28.676Z,12
2022-11-14T19:32:39.336Z,11
2022-11-14T19:37:52.263Z,10
2022-11-14T19:43:54.769Z,11
2022-11-14T19:50:05.516Z,9
2022-11-14T19:56:16.070Z,9
2022-11-14T20:02:26.719Z,9
2022-11-14T20:08:37.400Z,8
2022-11-14T20:14:48.102Z,9
2022-11-14T20:20:58.713Z,9
2022-11-14T20:27:09.403Z,8
2022-11-14T20:33:20.072Z,8
2022-11-14T20:39:30.711Z,7
2022-11-14T20:45:33.172Z,8
2022-11-14T20:51:43.899Z,8
2022-11-14T20:57:54.564Z,8
2022-11-14T21:04:05.199Z,9
2022-11-14T21:10:15.867Z,10
2022-11-14T21:16:26.524Z,9
2022-11-14T21:22:37.197Z,10
2022-11-14T21:28:47.855Z,10
2022-11-14T21:34:58.520Z,9
2022-11-14T21:41:00.993Z,9
2022-11-14T21:47:11.691Z,9
2022-11-14T21:53:22.337Z,9
2022-11-14T21:59:32.990Z,9
2022-11-14T22:05:43.679Z,8
2022-11-14T22:10:56.580Z,9
2022-11-14T22:17:07.216Z,9
2022-11-14T22:23:17.933Z,8
2022-11-14T22:29:28.553Z,8
2022-11-14T22:37:01.559Z,8
2022-11-14T22:42:55.872Z,8
2022-11-14T22:50:20.643Z,8
2022-11-14T22:57:45.556Z,8
2022-11-14T23:02:58.383Z,7
2022-11-14T23:08:03.154Z,7
2022-11-14T23:14:13.734Z,7
2022-11-14T23:20:24.462Z,7
2022-11-14T23:26:35.072Z,7
2022-11-14T23:32:45.739Z,7
2022-11-14T23:38:56.415Z,7
2022-11-14T23:44:58.863Z,7
2022-11-14T23:51:09.633Z,7
2022-11-14T23:57:20.286Z,7
